Time;durP1;ratioP1;P1;durP2;ratioP2;P2;SDS_P1;SDS_P2;PMS_P1;PMS_P2;Temp;Humidity;BMP_temperature;BMP_pressure;BME280_temperature;BME280_humidity;BME280_pressure;Samples;Min_cycle;Max_cycle;Signal;HPM_P1;HPM_P2
2023/09/11 00:02:37;;;;;;;23.52;15.60;;;;;;;;;;6209777;28;20328;-67
2023/09/11 00:05:41;;;;;;;21.13;14.38;;;;;;;;;;6209936;28;20305;-68
2023/09/11 00:09:00;;;;;;;18.20;13.48;;;;;;;;;;6209631;28;20301;-67
2023/09/11 00:12:04;;;;;;;18.83;14.45;;;;;;;;;;6209299;28;20277;-67
2023/09/11 00:15:10;;;;;;;21.05;14.23;;;;;;;;;;6209857;28;20308;-67
2023/09/11 00:18:15;;;;;;;21.30;14.63;;;;;;;;;;6209192;28;20300;-67
2023/09/11 00:21:18;;;;;;;20.08;14.00;;;;;;;;;;6209730;28;20488;-68
2023/09/11 00:24:22;;;;;;;24.00;14.45;;;;;;;;;;6209539;28;20289;-68
2023/09/11 00:27:26;;;;;;;18.52;13.57;;;;;;;;;;6209964;28;20305;-68
2023/09/11 00:30:31;;;;;;;24.05;14.15;;;;;;;;;;6207672;28;20297;-69
2023/09/11 00:33:35;;;;;;;19.17;14.35;;;;;;;;;;6235408;28;20299;-69
2023/09/11 00:36:39;;;;;;;20.85;14.65;;;;;;;;;;6252659;28;20614;-68
2023/09/11 00:39:42;;;;;;;21.35;14.25;;;;;;;;;;6243964;28;20572;-69
2023/09/11 00:42:46;;;;;;;18.65;13.88;;;;;;;;;;6257908;28;20338;-68
2023/09/11 00:45:51;;;;;;;20.23;14.10;;;;;;;;;;6258072;28;20288;-68
2023/09/11 00:48:56;;;;;;;17.48;13.15;;;;;;;;;;6257737;28;20303;-70
2023/09/11 00:52:00;;;;;;;16.45;13.88;;;;;;;;;;6256420;28;20304;-68
2023/09/11 00:55:05;;;;;;;19.33;14.18;;;;;;;;;;6273276;28;20295;-69
2023/09/11 00:58:09;;;;;;;16.35;14.10;;;;;;;;;;6257657;28;20319;-68
2023/09/11 01:01:14;;;;;;;21.60;14.10;;;;;;;;;;6256881;28;20339;-68
2023/09/11 01:04:18;;;;;;;19.17;13.40;;;;;;;;;;6272904;28;20488;-69
2023/09/11 01:07:22;;;;;;;19.23;14.07;;;;;;;;;;6257615;28;20307;-69
2023/09/11 01:10:25;;;;;;;19.13;14.27;;;;;;;;;;6257548;28;20295;-69
2023/09/11 01:13:29;;;;;;;16.80;13.65;;;;;;;;;;6255224;28;20295;-68
2023/09/11 01:16:37;;;;;;;20.63;14.70;;;;;;;;;;6257699;28;20307;-68
2023/09/11 01:19:50;;;;;;;19.77;14.20;;;;;;;;;;6271834;28;20299;-69
2023/09/11 01:23:11;;;;;;;22.38;14.23;;;;;;;;;;6257143;28;20597;-68
2023/09/11 01:26:35;;;;;;;19.70;14.90;;;;;;;;;;6272073;28;20307;-69
2023/09/11 01:29:41;;;;;;;19.27;13.48;;;;;;;;;;6255144;28;20299;-70
2023/09/11 01:32:46;;;;;;;18.00;13.30;;;;;;;;;;6271222;28;20312;-68
2023/09/11 01:35:50;;;;;;;19.80;13.32;;;;;;;;;;6257062;28;20555;-68
2023/09/11 01:38:54;;;;;;;22.80;14.23;;;;;;;;;;6255021;28;20400;-69
2023/09/11 01:42:04;;;;;;;21.83;13.25;;;;;;;;;;6255507;28;20311;-69
2023/09/11 01:45:13;;;;;;;19.20;13.98;;;;;;;;;;6270885;28;20303;-68
2023/09/11 01:48:17;;;;;;;19.67;14.65;;;;;;;;;;6256873;28;20296;-70
2023/09/11 01:51:22;;;;;;;17.52;14.20;;;;;;;;;;6255987;28;20228;-70
2023/09/11 01:54:26;;;;;;;18.77;14.57;;;;;;;;;;6256026;28;20295;-70
2023/09/11 01:57:30;;;;;;;17.90;14.98;;;;;;;;;;6256264;28;20311;-71
2023/09/11 02:00:35;;;;;;;18.25;14.10;;;;;;;;;;6272435;28;20318;-69
2023/09/11 02:03:40;;;;;;;23.70;14.80;;;;;;;;;;6255591;28;20287;-69
2023/09/11 02:06:45;;;;;;;20.08;14.77;;;;;;;;;;6256116;28;20312;-70
2023/09/11 02:09:48;;;;;;;20.02;14.40;;;;;;;;;;6256366;28;20590;-69
2023/09/11 02:12:53;;;;;;;21.30;14.98;;;;;;;;;;6256359;28;20312;-69
2023/09/11 02:15:58;;;;;;;23.67;14.23;;;;;;;;;;6257770;28;20338;-69
2023/09/11 02:19:02;;;;;;;20.67;15.02;;;;;;;;;;6261406;28;20490;-70
2023/09/11 02:22:06;;;;;;;19.75;14.32;;;;;;;;;;6261407;28;20303;-69
2023/09/11 02:25:10;;;;;;;19.67;14.95;;;;;;;;;;6261161;28;20563;-70
2023/09/11 02:28:13;;;;;;;22.80;14.50;;;;;;;;;;6259234;28;20320;-70
2023/09/11 02:31:18;;;;;;;19.77;14.70;;;;;;;;;;6261419;28;20299;-69
2023/09/11 02:34:22;;;;;;;22.60;15.20;;;;;;;;;;6275675;28;20307;-69
2023/09/11 02:37:26;;;;;;;24.00;14.35;;;;;;;;;;6260929;28;20499;-71
2023/09/11 02:40:30;;;;;;;19.13;14.73;;;;;;;;;;6259378;28;20299;-69
2023/09/11 02:43:33;;;;;;;21.30;15.10;;;;;;;;;;6260437;28;20282;-70
2023/09/11 02:46:39;;;;;;;19.58;14.18;;;;;;;;;;6259850;28;20296;-70
2023/09/11 02:49:43;;;;;;;17.85;14.10;;;;;;;;;;6260630;28;20303;-70
2023/09/11 02:52:47;;;;;;;18.30;14.38;;;;;;;;;;6260398;28;20308;-70
2023/09/11 02:55:51;;;;;;;22.17;14.50;;;;;;;;;;6259569;28;20287;-71
2023/09/11 02:58:54;;;;;;;26.08;14.93;;;;;;;;;;6259038;28;20295;-69
2023/09/11 03:02:00;;;;;;;19.63;14.82;;;;;;;;;;6258480;28;20382;-69
2023/09/11 03:05:04;;;;;;;21.63;14.63;;;;;;;;;;6253869;28;20303;-70
2023/09/11 03:08:08;;;;;;;20.50;14.98;;;;;;;;;;6274756;28;20402;-70
2023/09/11 03:11:11;;;;;;;19.42;14.18;;;;;;;;;;6260666;28;20291;-68
2023/09/11 03:14:17;;;;;;;20.90;14.60;;;;;;;;;;6258348;28;20300;-69
2023/09/11 03:17:22;;;;;;;19.98;14.77;;;;;;;;;;6275425;28;20311;-68
2023/09/11 03:20:26;;;;;;;22.45;14.63;;;;;;;;;;6258202;28;20303;-69
2023/09/11 03:23:30;;;;;;;18.05;14.18;;;;;;;;;;6259980;28;20307;-69
2023/09/11 03:26:34;;;;;;;21.08;14.55;;;;;;;;;;6259152;28;20307;-70
2023/09/11 03:29:38;;;;;;;20.80;14.68;;;;;;;;;;6274879;28;20308;-69
2023/09/11 03:32:43;;;;;;;18.73;14.10;;;;;;;;;;6258970;28;20311;-69
2023/09/11 03:35:47;;;;;;;19.98;14.55;;;;;;;;;;6275335;28;20308;-70
2023/09/11 03:38:51;;;;;;;21.85;15.32;;;;;;;;;;6256266;28;20323;-70
2023/09/11 03:41:55;;;;;;;19.88;15.00;;;;;;;;;;6257893;28;20323;-71
2023/09/11 03:45:00;;;;;;;24.02;15.38;;;;;;;;;;6273550;28;20366;-70
2023/09/11 03:48:05;;;;;;;18.23;14.63;;;;;;;;;;6257250;28;20320;-70
2023/09/11 03:51:09;;;;;;;21.67;14.60;;;;;;;;;;6275243;28;20264;-69
2023/09/11 03:54:13;;;;;;;21.75;15.15;;;;;;;;;;6259306;28;20307;-69
2023/09/11 03:57:17;;;;;;;18.52;14.25;;;;;;;;;;6259607;28;20248;-69
2023/09/11 04:00:21;;;;;;;20.10;15.25;;;;;;;;;;6257696;28;20335;-69
2023/09/11 04:03:27;;;;;;;19.75;14.85;;;;;;;;;;6274008;28;20295;-68
2023/09/11 04:06:30;;;;;;;18.85;14.65;;;;;;;;;;6274505;28;20611;-71
2023/09/11 04:09:35;;;;;;;18.38;15.18;;;;;;;;;;6258350;28;20299;-71
2023/09/11 04:12:39;;;;;;;26.20;15.63;;;;;;;;;;6258802;28;20291;-70
2023/09/11 04:15:44;;;;;;;24.55;15.15;;;;;;;;;;6257221;28;20303;-69
2023/09/11 04:18:50;;;;;;;24.08;15.35;;;;;;;;;;6272578;28;20584;-68
2023/09/11 04:21:54;;;;;;;23.10;15.25;;;;;;;;;;6256739;28;20607;-69
2023/09/11 04:24:58;;;;;;;22.92;15.45;;;;;;;;;;6256710;28;20250;-68
2023/09/11 04:28:02;;;;;;;20.33;14.65;;;;;;;;;;6256298;28;20303;-69
2023/09/11 04:31:06;;;;;;;21.63;14.88;;;;;;;;;;6273208;28;20307;-70
2023/09/11 04:34:11;;;;;;;23.85;14.82;;;;;;;;;;6257628;28;20299;-69
2023/09/11 04:37:16;;;;;;;19.00;14.73;;;;;;;;;;6257948;28;20300;-69
2023/09/11 04:40:20;;;;;;;19.17;14.65;;;;;;;;;;6254213;28;20405;-69
2023/09/11 04:43:24;;;;;;;17.75;14.23;;;;;;;;;;6258686;28;20576;-70
2023/09/11 04:46:29;;;;;;;15.80;13.23;;;;;;;;;;6257091;28;20300;-69
2023/09/11 04:49:35;;;;;;;17.85;12.85;;;;;;;;;;6256196;28;20303;-69
2023/09/11 04:52:39;;;;;;;14.48;12.27;;;;;;;;;;6255517;28;20323;-69
2023/09/11 04:55:43;;;;;;;13.18;11.77;;;;;;;;;;6273009;28;20304;-70
2023/09/11 04:58:47;;;;;;;12.85;11.50;;;;;;;;;;6256201;28;20326;-68
2023/09/11 05:01:51;;;;;;;15.32;11.65;;;;;;;;;;6256690;28;20299;-71
2023/09/11 05:04:56;;;;;;;12.23;11.00;;;;;;;;;;6255906;28;20295;-69
2023/09/11 05:08:01;;;;;;;11.98;10.63;;;;;;;;;;6257074;28;20346;-70
2023/09/11 05:11:05;;;;;;;12.05;10.82;;;;;;;;;;6256756;28;20295;-69
2023/09/11 05:14:09;;;;;;;11.73;10.52;;;;;;;;;;6255594;28;20303;-69
2023/09/11 05:17:13;;;;;;;13.90;11.38;;;;;;;;;;6256035;28;20299;-70
2023/09/11 05:20:18;;;;;;;11.48;10.38;;;;;;;;;;6271417;28;20475;-68
2023/09/11 05:23:24;;;;;;;13.52;11.48;;;;;;;;;;6257206;28;20304;-69
2023/09/11 05:26:28;;;;;;;14.77;12.30;;;;;;;;;;6257518;28;20299;-68
2023/09/11 05:29:31;;;;;;;16.05;12.52;;;;;;;;;;6256858;28;20299;-70
2023/09/11 05:32:35;;;;;;;16.15;12.27;;;;;;;;;;6271098;28;20515;-68
2023/09/11 05:35:41;;;;;;;15.65;12.90;;;;;;;;;;6257348;28;20323;-69
2023/09/11 05:38:47;;;;;;;16.20;13.05;;;;;;;;;;6255081;28;20446;-69
2023/09/11 05:41:51;;;;;;;14.70;12.85;;;;;;;;;;6257190;28;20299;-69
2023/09/11 05:44:55;;;;;;;19.38;14.07;;;;;;;;;;6254707;28;20303;-68
2023/09/11 05:47:59;;;;;;;21.10;15.38;;;;;;;;;;6255436;28;20291;-71
2023/09/11 05:51:04;;;;;;;22.80;14.90;;;;;;;;;;6260178;28;20240;-68
2023/09/11 05:54:08;;;;;;;22.92;15.52;;;;;;;;;;6261862;28;20599;-70
2023/09/11 05:57:12;;;;;;;20.05;14.25;;;;;;;;;;6262326;28;20279;-68
2023/09/11 06:00:16;;;;;;;20.73;14.70;;;;;;;;;;6260806;28;20298;-70
2023/09/11 06:03:20;;;;;;;22.23;15.18;;;;;;;;;;6261300;28;20300;-69
2023/09/11 06:06:25;;;;;;;23.65;14.70;;;;;;;;;;6261729;28;20307;-69
2023/09/11 06:09:29;;;;;;;24.92;15.30;;;;;;;;;;6261476;28;20303;-70
2023/09/11 06:12:33;;;;;;;23.73;15.18;;;;;;;;;;6261248;28;20303;-71
2023/09/11 06:15:37;;;;;;;19.38;14.88;;;;;;;;;;6261741;28;20359;-70
2023/09/11 06:18:41;;;;;;;23.77;15.82;;;;;;;;;;6260503;28;20295;-71
2023/09/11 06:21:47;;;;;;;20.10;14.27;;;;;;;;;;6261583;28;20315;-72
2023/09/11 06:24:51;;;;;;;21.83;14.98;;;;;;;;;;6260323;28;20549;-70
2023/09/11 06:27:56;;;;;;;21.55;15.23;;;;;;;;;;6260060;28;20287;-70
2023/09/11 06:31:00;;;;;;;25.95;15.48;;;;;;;;;;6261058;28;20303;-69
2023/09/11 06:34:04;;;;;;;27.42;15.98;;;;;;;;;;6260532;28;20490;-70
2023/09/11 06:37:10;;;;;;;22.10;15.18;;;;;;;;;;6261110;28;20307;-71
2023/09/11 06:40:13;;;;;;;17.45;14.07;;;;;;;;;;6258832;28;20287;-69
2023/09/11 06:43:17;;;;;;;15.82;13.38;;;;;;;;;;6259815;28;20300;-69
2023/09/11 06:46:21;;;;;;;17.58;13.13;;;;;;;;;;6259510;28;20299;-69
2023/09/11 06:49:25;;;;;;;17.42;14.38;;;;;;;;;;6276552;28;20506;-71
2023/09/11 06:52:32;;;;;;;15.05;11.15;;;;;;;;;;6260084;28;20312;-70
2023/09/11 06:55:36;;;;;;;12.77;11.57;;;;;;;;;;6260851;28;20308;-70
2023/09/11 06:58:42;;;;;;;12.48;11.20;;;;;;;;;;6260132;28;20283;-69
2023/09/11 07:01:46;;;;;;;13.65;11.20;;;;;;;;;;6260327;28;20587;-69
2023/09/11 07:04:49;;;;;;;14.55;11.13;;;;;;;;;;6260184;28;20316;-72
2023/09/11 07:07:55;;;;;;;17.80;12.02;;;;;;;;;;6260210;28;20295;-69
2023/09/11 07:10:59;;;;;;;14.75;11.90;;;;;;;;;;6260545;28;20330;-71
2023/09/11 07:14:05;;;;;;;15.43;11.88;;;;;;;;;;6259326;28;20505;-70
2023/09/11 07:17:09;;;;;;;12.15;10.68;;;;;;;;;;6260182;28;20299;-69
2023/09/11 07:20:13;;;;;;;11.00;9.90;;;;;;;;;;6259761;28;20307;-70
2023/09/11 07:23:19;;;;;;;10.57;9.68;;;;;;;;;;6259180;28;20295;-69
2023/09/11 07:26:22;;;;;;;10.18;9.18;;;;;;;;;;6260252;28;20323;-68
2023/09/11 07:29:27;;;;;;;11.15;10.02;;;;;;;;;;6259482;28;20307;-68
2023/09/11 07:32:31;;;;;;;10.57;9.63;;;;;;;;;;6259322;28;20611;-69
2023/09/11 07:35:35;;;;;;;11.30;10.05;;;;;;;;;;6260656;28;20315;-70
2023/09/11 07:38:44;;;;;;;10.65;9.73;;;;;;;;;;6258207;28;20303;-75
2023/09/11 07:41:48;;;;;;;12.07;10.38;;;;;;;;;;6259626;28;20287;-69
2023/09/11 07:44:52;;;;;;;12.60;10.05;;;;;;;;;;6258987;28;20332;-68
2023/09/11 07:47:56;;;;;;;11.27;10.27;;;;;;;;;;6257870;28;20295;-69
2023/09/11 07:51:00;;;;;;;10.57;9.68;;;;;;;;;;6258870;28;20276;-70
2023/09/11 07:54:06;;;;;;;10.52;9.57;;;;;;;;;;6257196;28;20608;-70
2023/09/11 07:57:09;;;;;;;10.55;9.57;;;;;;;;;;6258854;28;20244;-70
2023/09/11 08:00:15;;;;;;;10.18;9.10;;;;;;;;;;6258847;28;20475;-69
2023/09/11 08:03:19;;;;;;;10.07;9.25;;;;;;;;;;6251489;28;20300;-70
2023/09/11 08:06:24;;;;;;;11.30;10.00;;;;;;;;;;6234309;28;20308;-70
2023/09/11 08:09:29;;;;;;;10.73;9.73;;;;;;;;;;6233900;28;20304;-69
2023/09/11 08:12:34;;;;;;;10.43;9.52;;;;;;;;;;6257427;28;20315;-69
2023/09/11 08:15:39;;;;;;;11.05;9.77;;;;;;;;;;6258895;28;20287;-71
2023/09/11 08:18:43;;;;;;;16.33;12.98;;;;;;;;;;6273848;28;20311;-67
2023/09/11 08:21:48;;;;;;;17.63;13.57;;;;;;;;;;6258653;28;20601;-70
2023/09/11 08:24:53;;;;;;;19.35;14.50;;;;;;;;;;6258311;28;20307;-68
2023/09/11 08:27:57;;;;;;;22.60;14.98;;;;;;;;;;6257942;28;20568;-69
2023/09/11 08:31:01;;;;;;;20.75;15.30;;;;;;;;;;6258531;28;20461;-69
2023/09/11 08:34:05;;;;;;;17.33;13.18;;;;;;;;;;6257706;28;20323;-70
2023/09/11 08:37:09;;;;;;;14.02;12.55;;;;;;;;;;6258405;28;20323;-69
2023/09/11 08:40:14;;;;;;;17.23;13.70;;;;;;;;;;6256120;28;20387;-69
2023/09/11 08:43:22;;;;;;;14.98;13.35;;;;;;;;;;6257871;28;20323;-69
2023/09/11 08:46:28;;;;;;;14.90;12.77;;;;;;;;;;6256874;28;20530;-69
2023/09/11 08:49:34;;;;;;;17.27;12.65;;;;;;;;;;6257843;28;20288;-69
2023/09/11 08:52:39;;;;;;;14.18;12.68;;;;;;;;;;6272880;28;20300;-70
2023/09/11 08:55:45;;;;;;;13.77;11.85;;;;;;;;;;6256637;28;20312;-70
2023/09/11 08:58:51;;;;;;;12.82;10.32;;;;;;;;;;6258126;28;20350;-68
2023/09/11 09:01:55;;;;;;;11.02;10.02;;;;;;;;;;6273570;28;20320;-67
2023/09/11 09:05:03;;;;;;;12.10;10.52;;;;;;;;;;6257434;28;20303;-69
2023/09/11 09:08:08;;;;;;;13.30;10.00;;;;;;;;;;6255911;28;20297;-68
2023/09/11 09:11:13;;;;;;;11.95;9.27;;;;;;;;;;6257753;28;20319;-70
2023/09/11 09:14:18;;;;;;;10.65;9.60;;;;;;;;;;6256957;28;20367;-68
2023/09/11 09:17:22;;;;;;;10.95;9.93;;;;;;;;;;6257700;28;20307;-69
2023/09/11 09:20:26;;;;;;;10.88;9.50;;;;;;;;;;6257132;28;20582;-68
2023/09/11 09:23:35;;;;;;;11.93;9.98;;;;;;;;;;6257018;28;20295;-68
2023/09/11 09:26:56;;;;;;;11.70;10.50;;;;;;;;;;6257645;28;20244;-69
2023/09/11 09:30:00;;;;;;;10.20;9.40;;;;;;;;;;6256246;28;20486;-68
2023/09/11 09:33:05;;;;;;;11.02;9.93;;;;;;;;;;6256589;28;20347;-69
2023/09/11 09:36:08;;;;;;;11.05;10.05;;;;;;;;;;6257482;28;20532;-69
2023/09/11 09:39:13;;;;;;;10.95;9.98;;;;;;;;;;6255263;28;20307;-70
2023/09/11 09:42:18;;;;;;;10.10;9.10;;;;;;;;;;6257184;28;20251;-69
2023/09/11 09:45:28;;;;;;;11.77;9.25;;;;;;;;;;6256750;28;20303;-70
2023/09/11 09:48:32;;;;;;;9.75;9.05;;;;;;;;;;6256375;28;20299;-70
2023/09/11 09:51:45;;;;;;;12.57;9.00;;;;;;;;;;6257847;28;20314;-70
2023/09/11 09:54:51;;;;;;;9.88;9.18;;;;;;;;;;6256527;28;20311;-70
2023/09/11 09:57:56;;;;;;;11.48;8.73;;;;;;;;;;6256432;28;20327;-70
2023/09/11 10:01:02;;;;;;;9.90;9.10;;;;;;;;;;6257104;28;20559;-69
2023/09/11 10:04:15;;;;;;;10.30;9.40;;;;;;;;;;6256428;28;20292;-69
2023/09/11 10:07:36;;;;;;;12.05;9.68;;;;;;;;;;6256868;28;20609;-71
2023/09/11 10:10:40;;;;;;;9.32;8.52;;;;;;;;;;6256231;28;20304;-69
2023/09/11 10:13:45;;;;;;;9.85;9.02;;;;;;;;;;6256363;28;20299;-70
2023/09/11 10:16:49;;;;;;;9.48;8.77;;;;;;;;;;6256616;28;20363;-69
2023/09/11 10:19:54;;;;;;;10.35;9.30;;;;;;;;;;6256248;28;20299;-70
2023/09/11 10:23:00;;;;;;;10.15;9.25;;;;;;;;;;6256134;28;20363;-70
2023/09/11 10:26:06;;;;;;;10.10;9.20;;;;;;;;;;6257095;28;20307;-67
2023/09/11 10:29:15;;;;;;;9.52;8.75;;;;;;;;;;6256059;28;20490;-70
2023/09/11 10:32:24;;;;;;;10.18;9.38;;;;;;;;;;6257222;28;20685;-69
2023/09/11 10:35:30;;;;;;;10.40;9.40;;;;;;;;;;6255696;28;20291;-69
2023/09/11 10:38:36;;;;;;;11.80;10.70;;;;;;;;;;6260512;28;20331;-69
2023/09/11 10:41:40;;;;;;;10.35;8.50;;;;;;;;;;6260303;28;20296;-69
2023/09/11 10:44:45;;;;;;;13.57;9.32;;;;;;;;;;6260717;28;20318;-69
2023/09/11 10:47:52;;;;;;;10.18;9.27;;;;;;;;;;6261051;28;20291;-70
2023/09/11 10:50:57;;;;;;;10.57;9.20;;;;;;;;;;6261080;28;20288;-69
2023/09/11 10:54:01;;;;;;;10.30;9.40;;;;;;;;;;6259786;28;20311;-69
2023/09/11 10:57:06;;;;;;;9.90;9.10;;;;;;;;;;6260576;28;20247;-69
2023/09/11 11:00:13;;;;;;;10.88;9.88;;;;;;;;;;6260172;28;20304;-69
2023/09/11 11:03:17;;;;;;;10.45;9.65;;;;;;;;;;6260084;28;20287;-69
2023/09/11 11:06:23;;;;;;;10.35;9.45;;;;;;;;;;6260575;28;20295;-69
2023/09/11 11:09:31;;;;;;;11.13;10.00;;;;;;;;;;6259727;28;20508;-69
2023/09/11 11:12:40;;;;;;;10.60;9.32;;;;;;;;;;6259833;28;20307;-69
2023/09/11 11:15:46;;;;;;;11.25;10.27;;;;;;;;;;6260655;28;20291;-69
2023/09/11 11:18:54;;;;;;;10.85;9.75;;;;;;;;;;6260559;28;20304;-69
2023/09/11 11:22:01;;;;;;;12.05;9.73;;;;;;;;;;6260888;28;20327;-69
2023/09/11 11:25:10;;;;;;;10.32;8.82;;;;;;;;;;6260002;28;20492;-70
2023/09/11 11:28:16;;;;;;;10.25;9.45;;;;;;;;;;6259605;28;20234;-70
2023/09/11 11:31:22;;;;;;;15.98;9.82;;;;;;;;;;6260193;28;20635;-70
2023/09/11 11:34:29;;;;;;;11.02;10.10;;;;;;;;;;6259420;28;20303;-70
2023/09/11 11:37:36;;;;;;;9.77;9.05;;;;;;;;;;6259879;28;20331;-70
2023/09/11 11:40:40;;;;;;;10.02;8.73;;;;;;;;;;6258361;28;20300;-70
2023/09/11 11:43:44;;;;;;;17.98;9.85;;;;;;;;;;6259508;28;20340;-70
2023/09/11 11:46:49;;;;;;;14.93;10.25;;;;;;;;;;6259770;28;20299;-69
2023/09/11 11:49:55;;;;;;;12.65;10.18;;;;;;;;;;6259482;28;20642;-69
2023/09/11 11:52:58;;;;;;;12.60;9.73;;;;;;;;;;6259903;28;20307;-70
2023/09/11 11:56:04;;;;;;;14.30;10.57;;;;;;;;;;6258661;28;20303;-71
2023/09/11 11:59:08;;;;;;;11.43;10.07;;;;;;;;;;6274501;28;20306;-69
2023/09/11 12:02:24;;;;;;;11.80;10.35;;;;;;;;;;6259515;28;20299;-70
2023/09/11 12:05:28;;;;;;;12.88;10.65;;;;;;;;;;6258991;28;20283;-70
2023/09/11 12:08:32;;;;;;;15.77;11.02;;;;;;;;;;6258784;28;20311;-69
2023/09/11 12:11:39;;;;;;;14.32;11.88;;;;;;;;;;6259358;28;20532;-69
2023/09/11 12:14:43;;;;;;;13.68;12.23;;;;;;;;;;6258700;28;20303;-69
2023/09/11 12:17:50;;;;;;;15.65;11.75;;;;;;;;;;6258369;28;20541;-69
2023/09/11 12:21:02;;;;;;;17.05;12.73;;;;;;;;;;6259292;28;20296;-69
2023/09/11 12:24:08;;;;;;;18.10;12.98;;;;;;;;;;6257600;28;20296;-70
2023/09/11 12:27:12;;;;;;;14.10;12.70;;;;;;;;;;6258972;28;20240;-69
2023/09/11 12:30:17;;;;;;;14.82;12.50;;;;;;;;;;6258555;28;20307;-69
2023/09/11 12:33:24;;;;;;;17.70;12.98;;;;;;;;;;6258157;28;20300;-69
2023/09/11 12:36:30;;;;;;;16.50;12.75;;;;;;;;;;6258458;28;20585;-68
2023/09/11 12:39:34;;;;;;;16.50;12.68;;;;;;;;;;6271218;28;20740;-70
2023/09/11 12:42:39;;;;;;;14.85;12.75;;;;;;;;;;6257782;28;20291;-69
2023/09/11 12:45:44;;;;;;;13.82;11.77;;;;;;;;;;6257979;28;20279;-72
2023/09/11 12:48:49;;;;;;;17.65;12.60;;;;;;;;;;6257550;28;20311;-70
2023/09/11 12:51:54;;;;;;;23.27;12.00;;;;;;;;;;6258587;28;20303;-70
2023/09/11 12:54:58;;;;;;;22.33;12.60;;;;;;;;;;6258181;28;20605;-70
2023/09/11 12:58:03;;;;;;;16.05;12.00;;;;;;;;;;6257797;28;20295;-69
2023/09/11 13:01:07;;;;;;;15.05;12.05;;;;;;;;;;6258045;28;20411;-69
2023/09/11 13:04:12;;;;;;;17.77;12.18;;;;;;;;;;6257593;28;20298;-71
2023/09/11 13:07:16;;;;;;;14.82;11.80;;;;;;;;;;6258082;28;20600;-69
2023/09/11 13:10:21;;;;;;;16.50;11.80;;;;;;;;;;6257181;28;20319;-70
2023/09/11 13:13:24;;;;;;;13.82;10.82;;;;;;;;;;6257231;28;20299;-69
2023/09/11 13:16:38;;;;;;;17.02;11.18;;;;;;;;;;6258442;28;20826;-70
2023/09/11 13:19:43;;;;;;;15.73;11.05;;;;;;;;;;6257348;28;20308;-69
2023/09/11 13:22:47;;;;;;;13.57;11.38;;;;;;;;;;6257450;28;20295;-69
2023/09/11 13:25:51;;;;;;;11.93;10.57;;;;;;;;;;6258171;28;20316;-69
2023/09/11 13:28:55;;;;;;;16.35;11.23;;;;;;;;;;6257497;28;20569;-69
2023/09/11 13:31:58;;;;;;;11.70;9.23;;;;;;;;;;6257711;28;20303;-69
2023/09/11 13:35:04;;;;;;;12.15;9.45;;;;;;;;;;6207416;28;20300;-68
2023/09/11 13:38:09;;;;;;;11.88;10.30;;;;;;;;;;6208511;28;20577;-69
2023/09/11 13:41:14;;;;;;;10.45;9.13;;;;;;;;;;6206995;28;20332;-70
2023/09/11 13:44:17;;;;;;;10.02;9.25;;;;;;;;;;6223389;28;20392;-70
2023/09/11 13:47:21;;;;;;;10.23;9.50;;;;;;;;;;6208749;28;20288;-69
2023/09/11 13:50:27;;;;;;;10.23;9.25;;;;;;;;;;6188317;28;20488;-69
2023/09/11 13:53:31;;;;;;;10.27;9.45;;;;;;;;;;6192377;28;20300;-69
2023/09/11 13:56:35;;;;;;;10.13;9.15;;;;;;;;;;6187542;28;20398;-69
2023/09/11 13:59:38;;;;;;;13.43;9.15;;;;;;;;;;6183753;28;20501;-72
2023/09/11 14:02:42;;;;;;;12.13;9.85;;;;;;;;;;6183624;28;20324;-70
2023/09/11 14:05:48;;;;;;;12.05;9.48;;;;;;;;;;6183917;28;20294;-68
2023/09/11 14:08:51;;;;;;;11.18;9.40;;;;;;;;;;6194271;28;20308;-70
2023/09/11 14:11:55;;;;;;;10.40;9.50;;;;;;;;;;6210314;28;20309;-70
2023/09/11 14:14:59;;;;;;;11.18;9.32;;;;;;;;;;6211627;28;20308;-70
2023/09/11 14:18:04;;;;;;;18.65;9.40;;;;;;;;;;6212117;28;20612;-69
2023/09/11 14:21:10;;;;;;;9.82;8.82;;;;;;;;;;6212595;28;20245;-69
2023/09/11 14:24:15;;;;;;;10.60;9.40;;;;;;;;;;6212302;28;20308;-71
2023/09/11 14:27:19;;;;;;;10.80;9.45;;;;;;;;;;6212505;28;20293;-70
2023/09/11 14:30:23;;;;;;;9.88;8.93;;;;;;;;;;6212382;28;20316;-69
2023/09/11 14:33:27;;;;;;;16.58;10.35;;;;;;;;;;6223522;28;20300;-69
2023/09/11 14:36:32;;;;;;;10.60;9.70;;;;;;;;;;6236496;28;20304;-69
2023/09/11 14:39:36;;;;;;;10.43;9.07;;;;;;;;;;6234469;28;20339;-72
2023/09/11 14:42:41;;;;;;;12.90;11.70;;;;;;;;;;6236018;28;20379;-70
2023/09/11 14:45:44;;;;;;;10.50;9.68;;;;;;;;;;6254317;28;20297;-70
2023/09/11 14:48:55;;;;;;;10.50;9.65;;;;;;;;;;6236280;28;20676;-69
2023/09/11 14:52:00;;;;;;;12.48;9.73;;;;;;;;;;6236566;28;20316;-70
2023/09/11 14:55:05;;;;;;;11.02;10.13;;;;;;;;;;6235830;28;20306;-70
2023/09/11 14:58:09;;;;;;;10.40;9.50;;;;;;;;;;6235505;28;20293;-69
2023/09/11 15:01:13;;;;;;;10.63;9.73;;;;;;;;;;6275856;28;20295;-69
2023/09/11 15:04:17;;;;;;;14.13;9.80;;;;;;;;;;6260204;28;20303;-69
2023/09/11 15:07:42;;;;;;;10.70;9.63;;;;;;;;;;6260157;28;20324;-69
2023/09/11 15:10:47;;;;;;;10.68;9.73;;;;;;;;;;6260134;28;20299;-69
2023/09/11 15:13:51;;;;;;;13.13;9.88;;;;;;;;;;6259916;28;20293;-71
2023/09/11 15:16:56;;;;;;;11.80;9.82;;;;;;;;;;6260318;28;20299;-69
2023/09/11 15:20:00;;;;;;;17.02;9.82;;;;;;;;;;6259570;28;20319;-69
2023/09/11 15:23:05;;;;;;;11.93;9.85;;;;;;;;;;6259509;28;20287;-69
2023/09/11 15:26:09;;;;;;;12.85;9.77;;;;;;;;;;6260207;28;20296;-70
2023/09/11 15:29:13;;;;;;;9.95;9.18;;;;;;;;;;6259803;28;20303;-69
2023/09/11 15:32:19;;;;;;;11.23;10.13;;;;;;;;;;6259881;28;20326;-68
2023/09/11 15:35:23;;;;;;;9.70;8.77;;;;;;;;;;6259570;28;20315;-68
2023/09/11 15:38:28;;;;;;;11.65;10.23;;;;;;;;;;6259212;28;20561;-68
2023/09/11 15:41:32;;;;;;;11.25;9.93;;;;;;;;;;6258155;28;20319;-70
2023/09/11 15:44:36;;;;;;;10.85;9.80;;;;;;;;;;6259419;28;20307;-70
2023/09/11 15:47:39;;;;;;;13.10;9.70;;;;;;;;;;6259078;28;20315;-69
2023/09/11 15:50:43;;;;;;;12.85;10.05;;;;;;;;;;6260147;28;20311;-69
2023/09/11 15:53:48;;;;;;;10.35;9.30;;;;;;;;;;6259216;28;20437;-69
2023/09/11 15:56:53;;;;;;;10.75;9.75;;;;;;;;;;6259939;28;20497;-70
2023/09/11 15:59:57;;;;;;;14.20;10.10;;;;;;;;;;6259410;28;20327;-69
2023/09/11 16:03:01;;;;;;;14.65;9.70;;;;;;;;;;6258606;28;20580;-69
2023/09/11 16:06:05;;;;;;;16.88;10.43;;;;;;;;;;6259642;28;20260;-71
2023/09/11 16:09:10;;;;;;;14.93;10.45;;;;;;;;;;6258964;28;20309;-71
2023/09/11 16:12:14;;;;;;;10.73;9.82;;;;;;;;;;6259240;28;20267;-69
2023/09/11 16:15:18;;;;;;;11.95;10.07;;;;;;;;;;6258557;28;20299;-68
2023/09/11 16:18:22;;;;;;;12.65;9.38;;;;;;;;;;6258484;28;20386;-69
2023/09/11 16:21:26;;;;;;;11.88;9.93;;;;;;;;;;6241048;28;20295;-71
2023/09/11 16:24:44;;;;;;;10.75;9.40;;;;;;;;;;6240744;28;20296;-69
2023/09/11 16:27:48;;;;;;;12.05;10.00;;;;;;;;;;6258193;28;20295;-70
2023/09/11 16:30:52;;;;;;;11.20;10.05;;;;;;;;;;6258571;28;20331;-69
2023/09/11 16:33:56;;;;;;;14.77;10.57;;;;;;;;;;6256985;28;20300;-70
2023/09/11 16:37:01;;;;;;;13.52;10.68;;;;;;;;;;6258519;28;20291;-71
2023/09/11 16:40:09;;;;;;;14.32;9.50;;;;;;;;;;6256241;28;20302;-70
2023/09/11 16:43:13;;;;;;;10.85;9.70;;;;;;;;;;6257675;28;20304;-71
2023/09/11 16:46:18;;;;;;;18.80;10.18;;;;;;;;;;6258611;28;20299;-70
2023/09/11 16:49:24;;;;;;;10.20;9.30;;;;;;;;;;6257918;28;20300;-69
2023/09/11 16:52:27;;;;;;;10.68;9.73;;;;;;;;;;6257547;28;20564;-69
2023/09/11 16:55:33;;;;;;;11.00;10.00;;;;;;;;;;6257432;28;20307;-70
2023/09/11 16:58:37;;;;;;;11.90;10.05;;;;;;;;;;6257561;28;20287;-69
2023/09/11 17:01:41;;;;;;;11.10;9.73;;;;;;;;;;6257890;28;20307;-68
2023/09/11 17:04:45;;;;;;;11.25;9.95;;;;;;;;;;6257726;28;20297;-67
2023/09/11 17:07:49;;;;;;;11.57;10.35;;;;;;;;;;6257391;28;20287;-74
2023/09/11 17:10:54;;;;;;;15.70;11.50;;;;;;;;;;6257832;28;20574;-70
2023/09/11 17:13:58;;;;;;;12.27;11.18;;;;;;;;;;6257100;28;20307;-71
2023/09/11 17:17:03;;;;;;;20.33;12.65;;;;;;;;;;6257990;28;20299;-69
2023/09/11 17:20:07;;;;;;;20.60;14.25;;;;;;;;;;6257266;28;20299;-70
2023/09/11 17:23:12;;;;;;;17.60;13.85;;;;;;;;;;6257533;28;20299;-70
2023/09/11 17:26:17;;;;;;;24.65;14.45;;;;;;;;;;6239845;28;20312;-69
2023/09/11 17:29:21;;;;;;;21.30;16.30;;;;;;;;;;6257811;28;20315;-68
2023/09/11 17:32:25;;;;;;;27.42;16.98;;;;;;;;;;6257621;28;20324;-69
2023/09/11 17:35:29;;;;;;;26.70;17.02;;;;;;;;;;6257037;28;20291;-70
2023/09/11 17:38:33;;;;;;;25.33;18.02;;;;;;;;;;6257618;28;20295;-70
2023/09/11 17:41:39;;;;;;;24.33;17.67;;;;;;;;;;6256113;28;20303;-71
2023/09/11 17:44:43;;;;;;;27.40;17.42;;;;;;;;;;6256862;28;20523;-73
2023/09/11 17:47:47;;;;;;;29.70;17.95;;;;;;;;;;6257927;28;20323;-69
2023/09/11 17:50:52;;;;;;;31.15;19.02;;;;;;;;;;6257282;28;20299;-68
2023/09/11 17:53:56;;;;;;;31.77;20.85;;;;;;;;;;6256405;28;20311;-69
2023/09/11 17:57:01;;;;;;;30.00;20.60;;;;;;;;;;6256215;28;20272;-69
2023/09/11 18:00:08;;;;;;;33.88;21.13;;;;;;;;;;6256658;28;20311;-71
2023/09/11 18:03:14;;;;;;;38.42;22.48;;;;;;;;;;6256074;28;20296;-68